sensor_id;sensor_type;location;lat;lon;timestamp;P1;durP1;ratioP1;P2;durP2;ratioP2
14516;SDS011;7344;50.864;4.362;2022-11-13T00:00:18;39.67;;;31.43;;
14516;SDS011;7344;50.864;4.362;2022-11-13T00:02:43;38.63;;;31.33;;
14516;SDS011;7344;50.864;4.362;2022-11-13T00:05:09;43.87;;;33.00;;
14516;SDS011;7344;50.864;4.362;2022-11-13T00:07:37;43.57;;;33.00;;
14516;SDS011;7344;50.864;4.362;2022-11-13T00:10:03;43.33;;;34.67;;
14516;SDS011;7344;50.864;4.362;2022-11-13T00:12:29;40.17;;;31.13;;
14516;SDS011;7344;50.864;4.362;2022-11-13T00:14:55;41.40;;;32.93;;
14516;SDS011;7344;50.864;4.362;2022-11-13T00:17:20;44.07;;;34.60;;
14516;SDS011;7344;50.864;4.362;2022-11-13T00:19:46;43.47;;;34.87;;
14516;SDS011;7344;50.864;4.362;2022-11-13T00:22:11;44.07;;;33.03;;
14516;SDS011;7344;50.864;4.362;2022-11-13T00:24:37;53.93;;;37.33;;
14516;SDS011;7344;50.864;4.362;2022-11-13T00:27:02;46.13;;;35.37;;
14516;SDS011;7344;50.864;4.362;2022-11-13T00:29:28;41.27;;;32.77;;
14516;SDS011;7344;50.864;4.362;2022-11-13T00:31:53;41.03;;;33.70;;
14516;SDS011;7344;50.864;4.362;2022-11-13T00:34:19;43.20;;;35.07;;
14516;SDS011;7344;50.864;4.362;2022-11-13T00:36:47;41.93;;;34.37;;
14516;SDS011;7344;50.864;4.362;2022-11-13T00:39:13;45.60;;;34.60;;
14516;SDS011;7344;50.864;4.362;2022-11-13T00:41:39;42.73;;;35.50;;
14516;SDS011;7344;50.864;4.362;2022-11-13T00:44:04;47.73;;;36.63;;
14516;SDS011;7344;50.864;4.362;2022-11-13T00:46:30;40.63;;;32.13;;
14516;SDS011;7344;50.864;4.362;2022-11-13T00:48:59;44.50;;;35.47;;
14516;SDS011;7344;50.864;4.362;2022-11-13T00:51:24;36.97;;;30.23;;
14516;SDS011;7344;50.864;4.362;2022-11-13T00:53:50;39.53;;;32.77;;
14516;SDS011;7344;50.864;4.362;2022-11-13T00:56:16;40.13;;;31.57;;
14516;SDS011;7344;50.864;4.362;2022-11-13T00:58:41;40.13;;;31.73;;
14516;SDS011;7344;50.864;4.362;2022-11-13T01:01:13;39.47;;;31.27;;
14516;SDS011;7344;50.864;4.362;2022-11-13T01:03:41;39.20;;;30.53;;
14516;SDS011;7344;50.864;4.362;2022-11-13T01:06:11;41.17;;;31.10;;
14516;SDS011;7344;50.864;4.362;2022-11-13T01:08:45;39.47;;;31.10;;
14516;SDS011;7344;50.864;4.362;2022-11-13T01:11:15;38.43;;;31.37;;
14516;SDS011;7344;50.864;4.362;2022-11-13T01:13:47;43.23;;;33.50;;
14516;SDS011;7344;50.864;4.362;2022-11-13T01:16:14;40.60;;;32.43;;
14516;SDS011;7344;50.864;4.362;2022-11-13T01:18:41;40.07;;;31.70;;
14516;SDS011;7344;50.864;4.362;2022-11-13T01:21:08;35.63;;;30.37;;
14516;SDS011;7344;50.864;4.362;2022-11-13T01:23:35;37.83;;;29.80;;
14516;SDS011;7344;50.864;4.362;2022-11-13T01:28:43;40.73;;;30.00;;
14516;SDS011;7344;50.864;4.362;2022-11-13T01:31:11;37.93;;;29.83;;
14516;SDS011;7344;50.864;4.362;2022-11-13T01:33:39;38.20;;;31.00;;
14516;SDS011;7344;50.864;4.362;2022-11-13T01:36:10;37.27;;;31.03;;
14516;SDS011;7344;50.864;4.362;2022-11-13T01:38:38;34.00;;;28.87;;
14516;SDS011;7344;50.864;4.362;2022-11-13T01:41:04;35.07;;;29.10;;
14516;SDS011;7344;50.864;4.362;2022-11-13T01:43:32;36.80;;;29.83;;
14516;SDS011;7344;50.864;4.362;2022-11-13T01:48:37;36.50;;;29.47;;
14516;SDS011;7344;50.864;4.362;2022-11-13T01:51:17;36.13;;;29.73;;
14516;SDS011;7344;50.864;4.362;2022-11-13T01:53:51;36.37;;;29.20;;
14516;SDS011;7344;50.864;4.362;2022-11-13T01:56:18;36.57;;;30.07;;
14516;SDS011;7344;50.864;4.362;2022-11-13T01:58:45;37.07;;;29.33;;
14516;SDS011;7344;50.864;4.362;2022-11-13T02:01:17;37.57;;;29.33;;
14516;SDS011;7344;50.864;4.362;2022-11-13T02:03:42;37.50;;;29.63;;
14516;SDS011;7344;50.864;4.362;2022-11-13T02:06:08;35.97;;;28.77;;
14516;SDS011;7344;50.864;4.362;2022-11-13T02:08:34;36.10;;;29.37;;
14516;SDS011;7344;50.864;4.362;2022-11-13T02:10:59;39.30;;;31.03;;
14516;SDS011;7344;50.864;4.362;2022-11-13T02:13:25;43.73;;;32.10;;
14516;SDS011;7344;50.864;4.362;2022-11-13T02:15:51;40.37;;;31.80;;
14516;SDS011;7344;50.864;4.362;2022-11-13T02:18:18;37.00;;;30.53;;
14516;SDS011;7344;50.864;4.362;2022-11-13T02:26:07;71.83;;;50.13;;
14516;SDS011;7344;50.864;4.362;2022-11-13T02:28:34;41.77;;;30.77;;
14516;SDS011;7344;50.864;4.362;2022-11-13T02:31:12;44.13;;;34.03;;
14516;SDS011;7344;50.864;4.362;2022-11-13T02:33:38;49.83;;;37.97;;
14516;SDS011;7344;50.864;4.362;2022-11-13T02:36:05;65.23;;;49.13;;
14516;SDS011;7344;50.864;4.362;2022-11-13T02:38:32;134.03;;;94.37;;
14516;SDS011;7344;50.864;4.362;2022-11-13T02:41:01;39.60;;;30.77;;
14516;SDS011;7344;50.864;4.362;2022-11-13T02:43:26;36.87;;;29.00;;
14516;SDS011;7344;50.864;4.362;2022-11-13T02:45:52;38.00;;;28.87;;
14516;SDS011;7344;50.864;4.362;2022-11-13T02:48:18;37.97;;;29.27;;
14516;SDS011;7344;50.864;4.362;2022-11-13T02:50:44;39.87;;;31.53;;
14516;SDS011;7344;50.864;4.362;2022-11-13T02:53:10;34.23;;;27.93;;
14516;SDS011;7344;50.864;4.362;2022-11-13T02:55:38;38.13;;;28.67;;
14516;SDS011;7344;50.864;4.362;2022-11-13T02:58:04;33.67;;;27.53;;
14516;SDS011;7344;50.864;4.362;2022-11-13T03:00:29;34.03;;;27.87;;
14516;SDS011;7344;50.864;4.362;2022-11-13T03:02:55;32.23;;;27.20;;
14516;SDS011;7344;50.864;4.362;2022-11-13T03:05:21;34.60;;;27.17;;
14516;SDS011;7344;50.864;4.362;2022-11-13T03:07:47;33.83;;;27.23;;
14516;SDS011;7344;50.864;4.362;2022-11-13T03:10:12;34.63;;;27.33;;
14516;SDS011;7344;50.864;4.362;2022-11-13T03:12:38;33.93;;;28.40;;
14516;SDS011;7344;50.864;4.362;2022-11-13T03:15:05;36.30;;;29.70;;
14516;SDS011;7344;50.864;4.362;2022-11-13T03:17:35;57.73;;;46.87;;
14516;SDS011;7344;50.864;4.362;2022-11-13T03:20:01;44.43;;;34.53;;
14516;SDS011;7344;50.864;4.362;2022-11-13T03:22:30;37.77;;;30.90;;
14516;SDS011;7344;50.864;4.362;2022-11-13T03:24:55;38.90;;;31.37;;
14516;SDS011;7344;50.864;4.362;2022-11-13T03:27:21;47.23;;;37.57;;
14516;SDS011;7344;50.864;4.362;2022-11-13T03:29:47;39.60;;;33.20;;
14516;SDS011;7344;50.864;4.362;2022-11-13T03:32:15;53.43;;;34.50;;
14516;SDS011;7344;50.864;4.362;2022-11-13T03:34:41;58.47;;;37.87;;
14516;SDS011;7344;50.864;4.362;2022-11-13T03:37:07;76.63;;;52.53;;
14516;SDS011;7344;50.864;4.362;2022-11-13T03:39:32;39.33;;;31.77;;
14516;SDS011;7344;50.864;4.362;2022-11-13T03:41:58;48.43;;;34.57;;
14516;SDS011;7344;50.864;4.362;2022-11-13T03:44:23;42.63;;;33.23;;
14516;SDS011;7344;50.864;4.362;2022-11-13T03:46:49;42.17;;;33.37;;
14516;SDS011;7344;50.864;4.362;2022-11-13T03:49:15;41.57;;;33.30;;
14516;SDS011;7344;50.864;4.362;2022-11-13T03:52:01;44.73;;;33.60;;
14516;SDS011;7344;50.864;4.362;2022-11-13T03:54:26;43.57;;;33.67;;
14516;SDS011;7344;50.864;4.362;2022-11-13T03:56:52;43.57;;;34.57;;
14516;SDS011;7344;50.864;4.362;2022-11-13T03:59:20;42.30;;;32.30;;
14516;SDS011;7344;50.864;4.362;2022-11-13T04:01:46;43.17;;;30.27;;
14516;SDS011;7344;50.864;4.362;2022-11-13T04:04:12;43.37;;;31.70;;
14516;SDS011;7344;50.864;4.362;2022-11-13T04:06:37;43.30;;;31.90;;
14516;SDS011;7344;50.864;4.362;2022-11-13T04:09:03;38.40;;;30.10;;
14516;SDS011;7344;50.864;4.362;2022-11-13T04:11:29;35.40;;;28.03;;
14516;SDS011;7344;50.864;4.362;2022-11-13T04:13:58;32.23;;;26.33;;
14516;SDS011;7344;50.864;4.362;2022-11-13T04:16:26;32.77;;;26.67;;
14516;SDS011;7344;50.864;4.362;2022-11-13T04:18:52;33.77;;;25.67;;
14516;SDS011;7344;50.864;4.362;2022-11-13T04:21:18;31.13;;;25.33;;
14516;SDS011;7344;50.864;4.362;2022-11-13T04:23:44;31.60;;;24.53;;
14516;SDS011;7344;50.864;4.362;2022-11-13T04:26:09;30.50;;;23.20;;
14516;SDS011;7344;50.864;4.362;2022-11-13T04:28:35;33.33;;;25.77;;
14516;SDS011;7344;50.864;4.362;2022-11-13T04:31:03;31.50;;;24.03;;
14516;SDS011;7344;50.864;4.362;2022-11-13T04:33:29;31.17;;;24.53;;
14516;SDS011;7344;50.864;4.362;2022-11-13T04:35:57;35.00;;;26.20;;
14516;SDS011;7344;50.864;4.362;2022-11-13T04:38:23;31.97;;;25.03;;
14516;SDS011;7344;50.864;4.362;2022-11-13T04:40:49;39.37;;;26.13;;
14516;SDS011;7344;50.864;4.362;2022-11-13T04:43:35;34.80;;;25.23;;
14516;SDS011;7344;50.864;4.362;2022-11-13T04:46:00;30.47;;;24.37;;
14516;SDS011;7344;50.864;4.362;2022-11-13T04:48:26;31.83;;;24.77;;
14516;SDS011;7344;50.864;4.362;2022-11-13T04:50:51;29.60;;;24.37;;
14516;SDS011;7344;50.864;4.362;2022-11-13T04:53:17;29.83;;;24.40;;
14516;SDS011;7344;50.864;4.362;2022-11-13T04:55:45;29.93;;;24.53;;
14516;SDS011;7344;50.864;4.362;2022-11-13T04:58:11;31.57;;;25.03;;
14516;SDS011;7344;50.864;4.362;2022-11-13T05:00:36;30.93;;;24.87;;
14516;SDS011;7344;50.864;4.362;2022-11-13T05:03:02;33.77;;;25.60;;
14516;SDS011;7344;50.864;4.362;2022-11-13T05:05:28;31.53;;;24.87;;
14516;SDS011;7344;50.864;4.362;2022-11-13T05:07:56;29.07;;;24.97;;
14516;SDS011;7344;50.864;4.362;2022-11-13T05:10:21;33.10;;;25.87;;
14516;SDS011;7344;50.864;4.362;2022-11-13T05:12:47;30.23;;;24.50;;
14516;SDS011;7344;50.864;4.362;2022-11-13T05:15:13;30.67;;;24.20;;
14516;SDS011;7344;50.864;4.362;2022-11-13T05:17:38;34.27;;;27.37;;
14516;SDS011;7344;50.864;4.362;2022-11-13T05:20:04;33.20;;;26.80;;
14516;SDS011;7344;50.864;4.362;2022-11-13T05:22:30;34.77;;;27.03;;
14516;SDS011;7344;50.864;4.362;2022-11-13T05:24:56;33.93;;;26.00;;
14516;SDS011;7344;50.864;4.362;2022-11-13T05:27:21;31.90;;;26.53;;
14516;SDS011;7344;50.864;4.362;2022-11-13T05:29:52;34.27;;;25.83;;
14516;SDS011;7344;50.864;4.362;2022-11-13T05:32:17;31.87;;;25.93;;
14516;SDS011;7344;50.864;4.362;2022-11-13T05:34:43;31.50;;;25.10;;
14516;SDS011;7344;50.864;4.362;2022-11-13T05:37:08;30.27;;;23.90;;
14516;SDS011;7344;50.864;4.362;2022-11-13T05:39:34;33.37;;;26.83;;
14516;SDS011;7344;50.864;4.362;2022-11-13T05:41:59;31.30;;;26.93;;
14516;SDS011;7344;50.864;4.362;2022-11-13T05:44:25;30.07;;;24.47;;
14516;SDS011;7344;50.864;4.362;2022-11-13T05:46:51;30.90;;;25.83;;
14516;SDS011;7344;50.864;4.362;2022-11-13T05:49:16;32.00;;;25.63;;
14516;SDS011;7344;50.864;4.362;2022-11-13T05:51:42;30.53;;;23.77;;
14516;SDS011;7344;50.864;4.362;2022-11-13T05:54:07;29.47;;;24.80;;
14516;SDS011;7344;50.864;4.362;2022-11-13T05:56:34;32.77;;;26.10;;
14516;SDS011;7344;50.864;4.362;2022-11-13T05:59:00;32.90;;;24.87;;
14516;SDS011;7344;50.864;4.362;2022-11-13T06:01:45;29.77;;;24.00;;
14516;SDS011;7344;50.864;4.362;2022-11-13T06:04:11;30.30;;;23.70;;
14516;SDS011;7344;50.864;4.362;2022-11-13T06:06:36;31.03;;;24.10;;
14516;SDS011;7344;50.864;4.362;2022-11-13T06:09:05;32.33;;;24.83;;
14516;SDS011;7344;50.864;4.362;2022-11-13T06:11:31;31.03;;;23.63;;
14516;SDS011;7344;50.864;4.362;2022-11-13T06:13:57;29.60;;;24.63;;
14516;SDS011;7344;50.864;4.362;2022-11-13T06:16:25;31.17;;;23.83;;
14516;SDS011;7344;50.864;4.362;2022-11-13T06:18:58;32.67;;;24.90;;
14516;SDS011;7344;50.864;4.362;2022-11-13T06:21:27;29.80;;;24.60;;
14516;SDS011;7344;50.864;4.362;2022-11-13T06:23:54;32.53;;;24.50;;
14516;SDS011;7344;50.864;4.362;2022-11-13T06:26:28;32.33;;;25.00;;
14516;SDS011;7344;50.864;4.362;2022-11-13T06:28:56;33.97;;;24.93;;
14516;SDS011;7344;50.864;4.362;2022-11-13T06:31:26;29.90;;;24.47;;
14516;SDS011;7344;50.864;4.362;2022-11-13T06:33:53;30.80;;;24.20;;
14516;SDS011;7344;50.864;4.362;2022-11-13T06:36:21;32.30;;;23.97;;
14516;SDS011;7344;50.864;4.362;2022-11-13T06:38:52;29.57;;;24.03;;
14516;SDS011;7344;50.864;4.362;2022-11-13T06:41:18;29.40;;;23.50;;
14516;SDS011;7344;50.864;4.362;2022-11-13T06:43:53;29.00;;;23.13;;
14516;SDS011;7344;50.864;4.362;2022-11-13T06:46:23;28.47;;;23.43;;
14516;SDS011;7344;50.864;4.362;2022-11-13T06:48:49;30.10;;;23.17;;
14516;SDS011;7344;50.864;4.362;2022-11-13T06:51:17;28.27;;;22.93;;
14516;SDS011;7344;50.864;4.362;2022-11-13T06:53:47;29.30;;;23.07;;
14516;SDS011;7344;50.864;4.362;2022-11-13T06:56:13;31.27;;;23.17;;
14516;SDS011;7344;50.864;4.362;2022-11-13T06:58:39;28.23;;;22.47;;
14516;SDS011;7344;50.864;4.362;2022-11-13T07:01:06;26.53;;;22.50;;
14516;SDS011;7344;50.864;4.362;2022-11-13T07:03:33;26.37;;;22.80;;
14516;SDS011;7344;50.864;4.362;2022-11-13T07:06:03;29.30;;;23.53;;
14516;SDS011;7344;50.864;4.362;2022-11-13T07:08:30;29.63;;;22.50;;
14516;SDS011;7344;50.864;4.362;2022-11-13T07:10:56;27.60;;;23.23;;
14516;SDS011;7344;50.864;4.362;2022-11-13T07:13:23;28.23;;;23.63;;
14516;SDS011;7344;50.864;4.362;2022-11-13T07:15:50;28.33;;;22.57;;
14516;SDS011;7344;50.864;4.362;2022-11-13T07:18:15;30.23;;;22.53;;
14516;SDS011;7344;50.864;4.362;2022-11-13T07:20:41;26.00;;;21.40;;
14516;SDS011;7344;50.864;4.362;2022-11-13T07:23:07;27.53;;;21.40;;
14516;SDS011;7344;50.864;4.362;2022-11-13T07:25:32;26.77;;;21.37;;
14516;SDS011;7344;50.864;4.362;2022-11-13T07:27:58;26.13;;;21.53;;
14516;SDS011;7344;50.864;4.362;2022-11-13T07:30:24;22.40;;;19.90;;
14516;SDS011;7344;50.864;4.362;2022-11-13T07:32:50;21.83;;;17.00;;
14516;SDS011;7344;50.864;4.362;2022-11-13T07:35:16;18.37;;;16.07;;
14516;SDS011;7344;50.864;4.362;2022-11-13T07:37:42;17.63;;;15.70;;
14516;SDS011;7344;50.864;4.362;2022-11-13T07:40:08;17.37;;;14.53;;
14516;SDS011;7344;50.864;4.362;2022-11-13T07:42:39;18.83;;;14.67;;
14516;SDS011;7344;50.864;4.362;2022-11-13T07:45:05;16.10;;;14.50;;
14516;SDS011;7344;50.864;4.362;2022-11-13T07:47:31;15.57;;;13.30;;
14516;SDS011;7344;50.864;4.362;2022-11-13T07:49:56;15.33;;;13.47;;
14516;SDS011;7344;50.864;4.362;2022-11-13T07:52:22;15.97;;;13.00;;
14516;SDS011;7344;50.864;4.362;2022-11-13T07:54:47;14.20;;;12.67;;
14516;SDS011;7344;50.864;4.362;2022-11-13T07:57:13;14.83;;;12.13;;
14516;SDS011;7344;50.864;4.362;2022-11-13T07:59:39;12.73;;;11.07;;
14516;SDS011;7344;50.864;4.362;2022-11-13T08:02:05;12.50;;;11.23;;
14516;SDS011;7344;50.864;4.362;2022-11-13T08:04:30;12.45;;;11.20;;
14516;SDS011;7344;50.864;4.362;2022-11-13T08:06:56;12.88;;;11.38;;
14516;SDS011;7344;50.864;4.362;2022-11-13T08:09:22;11.98;;;10.63;;
14516;SDS011;7344;50.864;4.362;2022-11-13T08:11:47;11.48;;;10.38;;
14516;SDS011;7344;50.864;4.362;2022-11-13T08:14:16;12.50;;;11.20;;
14516;SDS011;7344;50.864;4.362;2022-11-13T08:16:42;13.77;;;12.40;;
14516;SDS011;7344;50.864;4.362;2022-11-13T08:19:07;13.60;;;12.17;;
14516;SDS011;7344;50.864;4.362;2022-11-13T08:21:33;14.63;;;12.57;;
14516;SDS011;7344;50.864;4.362;2022-11-13T08:24:00;14.10;;;12.60;;
14516;SDS011;7344;50.864;4.362;2022-11-13T08:26:25;13.37;;;11.97;;
14516;SDS011;7344;50.864;4.362;2022-11-13T08:28:51;13.37;;;11.97;;
14516;SDS011;7344;50.864;4.362;2022-11-13T08:31:16;15.33;;;12.67;;
14516;SDS011;7344;50.864;4.362;2022-11-13T08:33:42;16.33;;;12.80;;
14516;SDS011;7344;50.864;4.362;2022-11-13T08:36:08;13.97;;;11.47;;
14516;SDS011;7344;50.864;4.362;2022-11-13T08:38:34;17.43;;;13.30;;
14516;SDS011;7344;50.864;4.362;2022-11-13T08:41:07;16.07;;;12.47;;
14516;SDS011;7344;50.864;4.362;2022-11-13T08:43:32;17.67;;;13.13;;
14516;SDS011;7344;50.864;4.362;2022-11-13T08:45:58;14.57;;;12.60;;
14516;SDS011;7344;50.864;4.362;2022-11-13T08:48:26;15.10;;;13.53;;
14516;SDS011;7344;50.864;4.362;2022-11-13T08:50:53;15.27;;;12.20;;
14516;SDS011;7344;50.864;4.362;2022-11-13T08:53:20;16.93;;;12.10;;
14516;SDS011;7344;50.864;4.362;2022-11-13T08:55:46;14.27;;;12.30;;
14516;SDS011;7344;50.864;4.362;2022-11-13T08:58:12;14.37;;;12.13;;
14516;SDS011;7344;50.864;4.362;2022-11-13T09:00:38;12.70;;;11.55;;
14516;SDS011;7344;50.864;4.362;2022-11-13T09:03:04;12.15;;;10.80;;
14516;SDS011;7344;50.864;4.362;2022-11-13T09:05:29;11.82;;;10.63;;
14516;SDS011;7344;50.864;4.362;2022-11-13T09:07:56;14.90;;;11.52;;
14516;SDS011;7344;50.864;4.362;2022-11-13T09:10:23;11.77;;;10.57;;
14516;SDS011;7344;50.864;4.362;2022-11-13T09:12:54;14.07;;;11.47;;
14516;SDS011;7344;50.864;4.362;2022-11-13T09:15:28;13.47;;;11.40;;
14516;SDS011;7344;50.864;4.362;2022-11-13T09:17:59;13.40;;;10.77;;
14516;SDS011;7344;50.864;4.362;2022-11-13T09:20:26;13.20;;;11.00;;
14516;SDS011;7344;50.864;4.362;2022-11-13T09:23:02;12.30;;;11.00;;
14516;SDS011;7344;50.864;4.362;2022-11-13T09:25:30;13.03;;;11.67;;
14516;SDS011;7344;50.864;4.362;2022-11-13T09:27:58;12.63;;;11.37;;
14516;SDS011;7344;50.864;4.362;2022-11-13T09:30:28;14.40;;;12.97;;
14516;SDS011;7344;50.864;4.362;2022-11-13T09:32:58;12.57;;;11.23;;
14516;SDS011;7344;50.864;4.362;2022-11-13T09:35:25;12.82;;;11.35;;
14516;SDS011;7344;50.864;4.362;2022-11-13T09:38:08;12.90;;;11.60;;
14516;SDS011;7344;50.864;4.362;2022-11-13T09:40:49;13.63;;;11.30;;
14516;SDS011;7344;50.864;4.362;2022-11-13T09:43:32;13.75;;;10.52;;
14516;SDS011;7344;50.864;4.362;2022-11-13T09:45:59;12.30;;;11.10;;
14516;SDS011;7344;50.864;4.362;2022-11-13T09:50:59;12.45;;;11.07;;
14516;SDS011;7344;50.864;4.362;2022-11-13T09:53:31;12.98;;;11.52;;
14516;SDS011;7344;50.864;4.362;2022-11-13T09:58:45;11.52;;;10.27;;
14516;SDS011;7344;50.864;4.362;2022-11-13T10:01:20;11.05;;;10.05;;
14516;SDS011;7344;50.864;4.362;2022-11-13T10:04:09;12.35;;;10.90;;
14516;SDS011;7344;50.864;4.362;2022-11-13T10:09:55;10.73;;;9.73;;
14516;SDS011;7344;50.864;4.362;2022-11-13T10:12:21;14.40;;;9.63;;
14516;SDS011;7344;50.864;4.362;2022-11-13T10:14:47;9.63;;;8.70;;
14516;SDS011;7344;50.864;4.362;2022-11-13T10:17:21;9.52;;;8.70;;
14516;SDS011;7344;50.864;4.362;2022-11-13T10:25:16;10.40;;;8.35;;
14516;SDS011;7344;50.864;4.362;2022-11-13T10:27:49;9.60;;;8.52;;
14516;SDS011;7344;50.864;4.362;2022-11-13T10:30:19;8.30;;;7.45;;
14516;SDS011;7344;50.864;4.362;2022-11-13T10:32:50;6.00;;;5.50;;
14516;SDS011;7344;50.864;4.362;2022-11-13T10:38:18;7.03;;;5.90;;
14516;SDS011;7344;50.864;4.362;2022-11-13T10:40:48;9.18;;;8.27;;
14516;SDS011;7344;50.864;4.362;2022-11-13T10:45:54;7.18;;;6.57;;
14516;SDS011;7344;50.864;4.362;2022-11-13T10:48:29;8.55;;;7.72;;
14516;SDS011;7344;50.864;4.362;2022-11-13T10:50:59;7.07;;;6.47;;
14516;SDS011;7344;50.864;4.362;2022-11-13T10:53:38;6.38;;;5.85;;
14516;SDS011;7344;50.864;4.362;2022-11-13T10:56:38;5.40;;;4.90;;
14516;SDS011;7344;50.864;4.362;2022-11-13T10:59:19;6.60;;;6.00;;
14516;SDS011;7344;50.864;4.362;2022-11-13T11:01:45;5.63;;;5.22;;
14516;SDS011;7344;50.864;4.362;2022-11-13T11:04:12;6.00;;;5.40;;
14516;SDS011;7344;50.864;4.362;2022-11-13T11:06:43;5.57;;;5.07;;
14516;SDS011;7344;50.864;4.362;2022-11-13T11:17:09;6.75;;;6.18;;
14516;SDS011;7344;50.864;4.362;2022-11-13T11:19:37;8.13;;;7.32;;
14516;SDS011;7344;50.864;4.362;2022-11-13T11:22:10;13.75;;;9.40;;
14516;SDS011;7344;50.864;4.362;2022-11-13T11:24:49;8.95;;;8.05;;
14516;SDS011;7344;50.864;4.362;2022-11-13T11:27:20;7.05;;;6.45;;
14516;SDS011;7344;50.864;4.362;2022-11-13T11:29:57;7.07;;;6.47;;
14516;SDS011;7344;50.864;4.362;2022-11-13T11:38:10;5.97;;;5.47;;
14516;SDS011;7344;50.864;4.362;2022-11-13T11:41:33;8.00;;;7.20;;
14516;SDS011;7344;50.864;4.362;2022-11-13T11:44:03;7.68;;;6.85;;
14516;SDS011;7344;50.864;4.362;2022-11-13T11:46:32;10.57;;;8.38;;
14516;SDS011;7344;50.864;4.362;2022-11-13T11:49:02;14.20;;;11.23;;
14516;SDS011;7344;50.864;4.362;2022-11-13T11:53:57;5.20;;;4.70;;
14516;SDS011;7344;50.864;4.362;2022-11-13T11:56:38;4.45;;;4.15;;
14516;SDS011;7344;50.864;4.362;2022-11-13T11:59:27;5.10;;;4.70;;
14516;SDS011;7344;50.864;4.362;2022-11-13T12:05:02;4.60;;;4.30;;
14516;SDS011;7344;50.864;4.362;2022-11-13T12:15:51;3.42;;;3.22;;
14516;SDS011;7344;50.864;4.362;2022-11-13T12:24:27;4.40;;;3.95;;
14516;SDS011;7344;50.864;4.362;2022-11-13T12:35:04;6.23;;;5.07;;
14516;SDS011;7344;50.864;4.362;2022-11-13T12:37:41;5.80;;;3.80;;
14516;SDS011;7344;50.864;4.362;2022-11-13T12:45:52;3.57;;;3.37;;
14516;SDS011;7344;50.864;4.362;2022-11-13T12:48:45;5.07;;;3.70;;
14516;SDS011;7344;50.864;4.362;2022-11-13T12:51:12;6.30;;;5.70;;
14516;SDS011;7344;50.864;4.362;2022-11-13T12:53:48;5.77;;;5.27;;
14516;SDS011;7344;50.864;4.362;2022-11-13T12:58:58;3.50;;;3.30;;
14516;SDS011;7344;50.864;4.362;2022-11-13T13:01:27;4.27;;;3.97;;
14516;SDS011;7344;50.864;4.362;2022-11-13T13:09:31;6.47;;;5.93;;
14516;SDS011;7344;50.864;4.362;2022-11-13T13:18:00;4.20;;;3.80;;
14516;SDS011;7344;50.864;4.362;2022-11-13T13:20:38;3.90;;;3.50;;
14516;SDS011;7344;50.864;4.362;2022-11-13T13:23:06;3.70;;;3.40;;
14516;SDS011;7344;50.864;4.362;2022-11-13T13:25:36;3.93;;;3.10;;
14516;SDS011;7344;50.864;4.362;2022-11-13T13:30:59;9.00;;;7.23;;
14516;SDS011;7344;50.864;4.362;2022-11-13T13:36:28;7.23;;;6.53;;
14516;SDS011;7344;50.864;4.362;2022-11-13T13:39:07;5.17;;;4.77;;
14516;SDS011;7344;50.864;4.362;2022-11-13T13:47:42;6.77;;;6.20;;
14516;SDS011;7344;50.864;4.362;2022-11-13T13:50:13;22.87;;;15.37;;
14516;SDS011;7344;50.864;4.362;2022-11-13T13:52:41;9.90;;;7.97;;
14516;SDS011;7344;50.864;4.362;2022-11-13T13:55:15;23.43;;;17.20;;
14516;SDS011;7344;50.864;4.362;2022-11-13T13:57:48;12.50;;;10.47;;
14516;SDS011;7344;50.864;4.362;2022-11-13T14:00:14;12.20;;;9.20;;
14516;SDS011;7344;50.864;4.362;2022-11-13T14:02:46;7.20;;;6.57;;
14516;SDS011;7344;50.864;4.362;2022-11-13T14:08:19;8.00;;;7.20;;
14516;SDS011;7344;50.864;4.362;2022-11-13T14:10:50;7.70;;;6.63;;
14516;SDS011;7344;50.864;4.362;2022-11-13T14:13:26;25.43;;;15.63;;
14516;SDS011;7344;50.864;4.362;2022-11-13T14:16:05;7.17;;;6.40;;
14516;SDS011;7344;50.864;4.362;2022-11-13T14:18:32;8.67;;;5.83;;
14516;SDS011;7344;50.864;4.362;2022-11-13T14:21:00;5.60;;;5.10;;
14516;SDS011;7344;50.864;4.362;2022-11-13T14:23:30;4.80;;;4.40;;
14516;SDS011;7344;50.864;4.362;2022-11-13T14:26:00;4.83;;;4.40;;
14516;SDS011;7344;50.864;4.362;2022-11-13T14:28:27;5.37;;;4.87;;
14516;SDS011;7344;50.864;4.362;2022-11-13T14:31:02;4.47;;;4.10;;
14516;SDS011;7344;50.864;4.362;2022-11-13T14:33:36;5.37;;;4.87;;
14516;SDS011;7344;50.864;4.362;2022-11-13T14:36:05;7.77;;;6.10;;
14516;SDS011;7344;50.864;4.362;2022-11-13T14:38:32;5.23;;;4.80;;
14516;SDS011;7344;50.864;4.362;2022-11-13T14:41:03;7.37;;;6.00;;
14516;SDS011;7344;50.864;4.362;2022-11-13T14:43:30;7.90;;;6.57;;
14516;SDS011;7344;50.864;4.362;2022-11-13T14:45:58;8.37;;;7.23;;
14516;SDS011;7344;50.864;4.362;2022-11-13T14:48:26;6.30;;;5.70;;
14516;SDS011;7344;50.864;4.362;2022-11-13T14:50:57;8.87;;;7.70;;
14516;SDS011;7344;50.864;4.362;2022-11-13T14:53:29;16.63;;;12.73;;
14516;SDS011;7344;50.864;4.362;2022-11-13T14:55:57;16.57;;;11.23;;
14516;SDS011;7344;50.864;4.362;2022-11-13T14:58:32;10.60;;;8.03;;
14516;SDS011;7344;50.864;4.362;2022-11-13T15:01:16;4.80;;;4.40;;
14516;SDS011;7344;50.864;4.362;2022-11-13T15:03:44;4.77;;;4.37;;
14516;SDS011;7344;50.864;4.362;2022-11-13T15:06:14;8.30;;;6.20;;
14516;SDS011;7344;50.864;4.362;2022-11-13T15:08:45;5.93;;;4.67;;
14516;SDS011;7344;50.864;4.362;2022-11-13T15:11:13;11.50;;;7.43;;
14516;SDS011;7344;50.864;4.362;2022-11-13T15:13:42;10.87;;;8.03;;
14516;SDS011;7344;50.864;4.362;2022-11-13T15:16:12;12.90;;;10.73;;
14516;SDS011;7344;50.864;4.362;2022-11-13T15:18:45;8.57;;;7.57;;
14516;SDS011;7344;50.864;4.362;2022-11-13T15:21:16;8.77;;;6.63;;
14516;SDS011;7344;50.864;4.362;2022-11-13T15:23:42;15.27;;;9.00;;
14516;SDS011;7344;50.864;4.362;2022-11-13T15:26:11;15.37;;;10.20;;
14516;SDS011;7344;50.864;4.362;2022-11-13T15:28:37;13.17;;;10.23;;
14516;SDS011;7344;50.864;4.362;2022-11-13T15:33:44;6.83;;;6.13;;
14516;SDS011;7344;50.864;4.362;2022-11-13T15:36:12;9.70;;;7.50;;
14516;SDS011;7344;50.864;4.362;2022-11-13T15:38:38;8.70;;;7.67;;
14516;SDS011;7344;50.864;4.362;2022-11-13T15:41:13;8.70;;;7.87;;
14516;SDS011;7344;50.864;4.362;2022-11-13T15:43:42;29.53;;;20.00;;
14516;SDS011;7344;50.864;4.362;2022-11-13T15:46:13;25.77;;;15.27;;
14516;SDS011;7344;50.864;4.362;2022-11-13T15:48:40;12.83;;;10.63;;
14516;SDS011;7344;50.864;4.362;2022-11-13T15:51:28;13.23;;;9.97;;
14516;SDS011;7344;50.864;4.362;2022-11-13T15:54:00;9.40;;;8.50;;
14516;SDS011;7344;50.864;4.362;2022-11-13T15:56:31;11.50;;;8.83;;
14516;SDS011;7344;50.864;4.362;2022-11-13T15:58:57;18.03;;;12.80;;
14516;SDS011;7344;50.864;4.362;2022-11-13T16:01:23;15.23;;;11.70;;
14516;SDS011;7344;50.864;4.362;2022-11-13T16:03:49;20.33;;;12.20;;
14516;SDS011;7344;50.864;4.362;2022-11-13T16:06:16;14.57;;;11.60;;
14516;SDS011;7344;50.864;4.362;2022-11-13T16:08:47;11.03;;;9.83;;
14516;SDS011;7344;50.864;4.362;2022-11-13T16:11:13;14.07;;;10.23;;
14516;SDS011;7344;50.864;4.362;2022-11-13T16:13:41;12.13;;;10.50;;
14516;SDS011;7344;50.864;4.362;2022-11-13T16:16:14;14.93;;;11.50;;
14516;SDS011;7344;50.864;4.362;2022-11-13T16:18:42;19.03;;;12.10;;
14516;SDS011;7344;50.864;4.362;2022-11-13T16:21:11;21.10;;;12.80;;
14516;SDS011;7344;50.864;4.362;2022-11-13T16:23:38;16.40;;;13.50;;
14516;SDS011;7344;50.864;4.362;2022-11-13T16:26:04;15.50;;;12.67;;
14516;SDS011;7344;50.864;4.362;2022-11-13T16:28:30;15.80;;;13.33;;
14516;SDS011;7344;50.864;4.362;2022-11-13T16:30:55;32.00;;;21.60;;
14516;SDS011;7344;50.864;4.362;2022-11-13T16:33:22;24.27;;;19.03;;
14516;SDS011;7344;50.864;4.362;2022-11-13T16:35:47;21.80;;;16.57;;
14516;SDS011;7344;50.864;4.362;2022-11-13T16:38:13;22.10;;;16.23;;